sensor_id;sensor_type;location;lat;lon;timestamp;P1;durP1;ratioP1;P2;durP2;ratioP2
76955;SDS011;65894;53.206;-6.108;2023-01-29T00:00:50;13.10;;;4.93;;
76955;SDS011;65894;53.206;-6.108;2023-01-29T00:03:16;12.73;;;4.57;;
76955;SDS011;65894;53.206;-6.108;2023-01-29T00:05:42;14.88;;;4.97;;
76955;SDS011;65894;53.206;-6.108;2023-01-29T00:08:08;14.93;;;4.97;;
76955;SDS011;65894;53.206;-6.108;2023-01-29T00:10:33;16.15;;;5.25;;
76955;SDS011;65894;53.206;-6.108;2023-01-29T00:12:59;13.73;;;4.97;;
76955;SDS011;65894;53.206;-6.108;2023-01-29T00:15:24;12.55;;;4.65;;
76955;SDS011;65894;53.206;-6.108;2023-01-29T00:17:50;14.60;;;4.47;;
76955;SDS011;65894;53.206;-6.108;2023-01-29T00:20:15;14.48;;;4.60;;
76955;SDS011;65894;53.206;-6.108;2023-01-29T00:22:41;14.15;;;5.13;;
76955;SDS011;65894;53.206;-6.108;2023-01-29T00:25:07;13.65;;;5.03;;
76955;SDS011;65894;53.206;-6.108;2023-01-29T00:27:33;13.05;;;4.20;;
76955;SDS011;65894;53.206;-6.108;2023-01-29T00:29:58;13.25;;;4.28;;
76955;SDS011;65894;53.206;-6.108;2023-01-29T00:32:36;10.65;;;3.85;;
76955;SDS011;65894;53.206;-6.108;2023-01-29T00:35:02;13.30;;;4.35;;
76955;SDS011;65894;53.206;-6.108;2023-01-29T00:37:27;12.55;;;3.90;;
76955;SDS011;65894;53.206;-6.108;2023-01-29T00:39:53;10.70;;;3.63;;
76955;SDS011;65894;53.206;-6.108;2023-01-29T00:42:19;11.75;;;3.92;;
76955;SDS011;65894;53.206;-6.108;2023-01-29T00:45:03;11.43;;;3.95;;
76955;SDS011;65894;53.206;-6.108;2023-01-29T00:47:29;12.30;;;3.72;;
76955;SDS011;65894;53.206;-6.108;2023-01-29T00:49:55;14.85;;;4.20;;
76955;SDS011;65894;53.206;-6.108;2023-01-29T00:52:21;11.43;;;3.63;;
76955;SDS011;65894;53.206;-6.108;2023-01-29T00:54:50;11.25;;;3.63;;
76955;SDS011;65894;53.206;-6.108;2023-01-29T00:57:24;16.02;;;4.28;;
76955;SDS011;65894;53.206;-6.108;2023-01-29T00:59:52;16.88;;;3.65;;
76955;SDS011;65894;53.206;-6.108;2023-01-29T01:02:19;12.32;;;3.28;;
76955;SDS011;65894;53.206;-6.108;2023-01-29T01:05:04;13.35;;;4.10;;
76955;SDS011;65894;53.206;-6.108;2023-01-29T01:07:31;13.05;;;3.80;;
76955;SDS011;65894;53.206;-6.108;2023-01-29T01:09:57;11.18;;;3.50;;
76955;SDS011;65894;53.206;-6.108;2023-01-29T01:12:43;9.57;;;2.83;;
76955;SDS011;65894;53.206;-6.108;2023-01-29T01:15:09;11.32;;;3.00;;
76955;SDS011;65894;53.206;-6.108;2023-01-29T01:17:35;9.10;;;3.17;;
76955;SDS011;65894;53.206;-6.108;2023-01-29T01:20:01;9.30;;;3.30;;
76955;SDS011;65894;53.206;-6.108;2023-01-29T01:22:27;8.38;;;2.80;;
76955;SDS011;65894;53.206;-6.108;2023-01-29T01:24:52;9.85;;;3.13;;
76955;SDS011;65894;53.206;-6.108;2023-01-29T01:27:18;9.93;;;3.08;;
76955;SDS011;65894;53.206;-6.108;2023-01-29T01:29:44;10.23;;;3.40;;
76955;SDS011;65894;53.206;-6.108;2023-01-29T01:32:11;9.10;;;2.92;;
76955;SDS011;65894;53.206;-6.108;2023-01-29T01:34:37;8.98;;;3.33;;
76955;SDS011;65894;53.206;-6.108;2023-01-29T01:37:02;8.75;;;2.78;;
76955;SDS011;65894;53.206;-6.108;2023-01-29T01:39:28;8.10;;;2.63;;
76955;SDS011;65894;53.206;-6.108;2023-01-29T01:41:53;8.80;;;3.00;;
76955;SDS011;65894;53.206;-6.108;2023-01-29T01:47:19;9.38;;;2.53;;
76955;SDS011;65894;53.206;-6.108;2023-01-29T01:49:51;8.88;;;3.03;;
76955;SDS011;65894;53.206;-6.108;2023-01-29T01:52:17;6.70;;;2.35;;
76955;SDS011;65894;53.206;-6.108;2023-01-29T01:54:44;7.53;;;2.80;;
76955;SDS011;65894;53.206;-6.108;2023-01-29T01:57:11;7.80;;;2.47;;
76955;SDS011;65894;53.206;-6.108;2023-01-29T01:59:57;6.60;;;2.25;;
76955;SDS011;65894;53.206;-6.108;2023-01-29T02:02:38;6.90;;;2.47;;
76955;SDS011;65894;53.206;-6.108;2023-01-29T02:08:11;8.40;;;2.70;;
76955;SDS011;65894;53.206;-6.108;2023-01-29T02:10:55;8.25;;;2.35;;
76955;SDS011;65894;53.206;-6.108;2023-01-29T02:13:22;6.32;;;2.17;;
76955;SDS011;65894;53.206;-6.108;2023-01-29T02:15:48;5.68;;;2.30;;
76955;SDS011;65894;53.206;-6.108;2023-01-29T02:18:18;8.02;;;2.40;;
76955;SDS011;65894;53.206;-6.108;2023-01-29T02:21:07;6.38;;;2.05;;
76955;SDS011;65894;53.206;-6.108;2023-01-29T02:27:02;6.43;;;2.13;;
76955;SDS011;65894;53.206;-6.108;2023-01-29T02:29:53;6.13;;;2.03;;
76955;SDS011;65894;53.206;-6.108;2023-01-29T02:32:33;6.00;;;1.95;;
76955;SDS011;65894;53.206;-6.108;2023-01-29T02:49:06;5.03;;;1.88;;
76955;SDS011;65894;53.206;-6.108;2023-01-29T02:51:50;5.93;;;1.80;;
76955;SDS011;65894;53.206;-6.108;2023-01-29T02:57:13;5.03;;;1.45;;
76955;SDS011;65894;53.206;-6.108;2023-01-29T02:59:46;6.13;;;1.65;;
76955;SDS011;65894;53.206;-6.108;2023-01-29T03:02:18;5.13;;;1.50;;
76955;SDS011;65894;53.206;-6.108;2023-01-29T03:04:50;4.47;;;1.42;;
76955;SDS011;65894;53.206;-6.108;2023-01-29T03:07:24;4.93;;;1.75;;
76955;SDS011;65894;53.206;-6.108;2023-01-29T03:10:11;4.93;;;1.50;;
76955;SDS011;65894;53.206;-6.108;2023-01-29T03:13:17;4.30;;;1.50;;
76955;SDS011;65894;53.206;-6.108;2023-01-29T03:15:48;4.43;;;1.30;;
76955;SDS011;65894;53.206;-6.108;2023-01-29T03:18:35;4.38;;;1.50;;
76955;SDS011;65894;53.206;-6.108;2023-01-29T03:21:12;4.55;;;1.40;;
76955;SDS011;65894;53.206;-6.108;2023-01-29T03:24:02;4.25;;;1.30;;
76955;SDS011;65894;53.206;-6.108;2023-01-29T03:26:49;5.03;;;1.52;;
76955;SDS011;65894;53.206;-6.108;2023-01-29T03:29:40;4.03;;;1.30;;
76955;SDS011;65894;53.206;-6.108;2023-01-29T03:32:43;4.25;;;1.17;;
76955;SDS011;65894;53.206;-6.108;2023-01-29T03:35:13;4.82;;;1.25;;
76955;SDS011;65894;53.206;-6.108;2023-01-29T03:37:48;4.50;;;1.42;;
76955;SDS011;65894;53.206;-6.108;2023-01-29T03:40:14;3.78;;;1.13;;
76955;SDS011;65894;53.206;-6.108;2023-01-29T03:48:05;2.97;;;1.00;;
76955;SDS011;65894;53.206;-6.108;2023-01-29T03:51:10;4.15;;;1.20;;
76955;SDS011;65894;53.206;-6.108;2023-01-29T03:53:47;5.45;;;1.42;;
76955;SDS011;65894;53.206;-6.108;2023-01-29T03:59:48;4.38;;;1.20;;
76955;SDS011;65894;53.206;-6.108;2023-01-29T04:03:05;3.65;;;1.20;;
76955;SDS011;65894;53.206;-6.108;2023-01-29T04:05:42;3.38;;;1.15;;
76955;SDS011;65894;53.206;-6.108;2023-01-29T04:08:23;3.85;;;1.13;;
76955;SDS011;65894;53.206;-6.108;2023-01-29T04:10:57;2.58;;;1.08;;
76955;SDS011;65894;53.206;-6.108;2023-01-29T04:13:26;3.33;;;1.10;;
76955;SDS011;65894;53.206;-6.108;2023-01-29T04:15:57;3.92;;;1.13;;
76955;SDS011;65894;53.206;-6.108;2023-01-29T04:18:48;3.33;;;0.98;;
76955;SDS011;65894;53.206;-6.108;2023-01-29T04:21:15;3.25;;;1.10;;
76955;SDS011;65894;53.206;-6.108;2023-01-29T04:23:42;3.20;;;1.10;;
76955;SDS011;65894;53.206;-6.108;2023-01-29T04:28:58;3.30;;;1.08;;
76955;SDS011;65894;53.206;-6.108;2023-01-29T04:31:43;3.67;;;1.02;;
76955;SDS011;65894;53.206;-6.108;2023-01-29T04:40:17;3.70;;;1.00;;
76955;SDS011;65894;53.206;-6.108;2023-01-29T04:48:25;2.85;;;0.88;;
76955;SDS011;65894;53.206;-6.108;2023-01-29T04:57:11;2.63;;;0.90;;
76955;SDS011;65894;53.206;-6.108;2023-01-29T05:00:06;2.58;;;0.80;;
76955;SDS011;65894;53.206;-6.108;2023-01-29T05:02:39;2.53;;;0.68;;
76955;SDS011;65894;53.206;-6.108;2023-01-29T05:05:06;1.88;;;0.68;;
76955;SDS011;65894;53.206;-6.108;2023-01-29T05:07:34;3.05;;;0.85;;
76955;SDS011;65894;53.206;-6.108;2023-01-29T05:10:02;2.03;;;0.70;;
76955;SDS011;65894;53.206;-6.108;2023-01-29T05:12:29;2.85;;;1.00;;
76955;SDS011;65894;53.206;-6.108;2023-01-29T05:15:00;2.85;;;0.80;;
76955;SDS011;65894;53.206;-6.108;2023-01-29T05:17:26;2.28;;;0.70;;
76955;SDS011;65894;53.206;-6.108;2023-01-29T05:19:53;2.22;;;0.80;;
76955;SDS011;65894;53.206;-6.108;2023-01-29T05:22:20;2.00;;;0.75;;
76955;SDS011;65894;53.206;-6.108;2023-01-29T05:24:50;1.70;;;0.70;;
76955;SDS011;65894;53.206;-6.108;2023-01-29T05:27:19;2.58;;;0.73;;
76955;SDS011;65894;53.206;-6.108;2023-01-29T05:30:07;1.73;;;0.70;;
76955;SDS011;65894;53.206;-6.108;2023-01-29T05:32:33;1.48;;;0.70;;
76955;SDS011;65894;53.206;-6.108;2023-01-29T05:34:59;1.77;;;0.70;;
76955;SDS011;65894;53.206;-6.108;2023-01-29T05:37:24;2.13;;;0.70;;
76955;SDS011;65894;53.206;-6.108;2023-01-29T05:39:50;3.15;;;0.75;;
76955;SDS011;65894;53.206;-6.108;2023-01-29T05:42:15;1.83;;;0.70;;
76955;SDS011;65894;53.206;-6.108;2023-01-29T05:44:41;2.90;;;0.90;;
76955;SDS011;65894;53.206;-6.108;2023-01-29T05:47:06;1.48;;;0.60;;
76955;SDS011;65894;53.206;-6.108;2023-01-29T05:49:32;1.55;;;0.65;;
76955;SDS011;65894;53.206;-6.108;2023-01-29T05:51:57;2.30;;;0.75;;
76955;SDS011;65894;53.206;-6.108;2023-01-29T05:54:23;1.35;;;0.70;;
76955;SDS011;65894;53.206;-6.108;2023-01-29T05:56:48;2.35;;;0.60;;
76955;SDS011;65894;53.206;-6.108;2023-01-29T05:59:14;2.20;;;0.65;;
76955;SDS011;65894;53.206;-6.108;2023-01-29T06:01:40;2.92;;;0.70;;
76955;SDS011;65894;53.206;-6.108;2023-01-29T06:04:05;1.38;;;0.60;;
76955;SDS011;65894;53.206;-6.108;2023-01-29T06:06:31;1.65;;;0.52;;
76955;SDS011;65894;53.206;-6.108;2023-01-29T06:08:56;2.67;;;0.82;;
76955;SDS011;65894;53.206;-6.108;2023-01-29T06:11:23;1.50;;;0.57;;
76955;SDS011;65894;53.206;-6.108;2023-01-29T06:13:48;2.08;;;0.60;;
76955;SDS011;65894;53.206;-6.108;2023-01-29T06:16:14;2.15;;;0.50;;
76955;SDS011;65894;53.206;-6.108;2023-01-29T06:18:40;2.03;;;0.70;;
76955;SDS011;65894;53.206;-6.108;2023-01-29T06:21:07;1.75;;;0.50;;
76955;SDS011;65894;53.206;-6.108;2023-01-29T06:23:35;1.27;;;0.50;;
76955;SDS011;65894;53.206;-6.108;2023-01-29T06:26:04;2.42;;;0.50;;
76955;SDS011;65894;53.206;-6.108;2023-01-29T06:28:32;1.95;;;0.52;;
76955;SDS011;65894;53.206;-6.108;2023-01-29T06:30:58;1.10;;;0.47;;
76955;SDS011;65894;53.206;-6.108;2023-01-29T06:33:25;0.90;;;0.38;;
76955;SDS011;65894;53.206;-6.108;2023-01-29T06:35:57;2.08;;;0.60;;
76955;SDS011;65894;53.206;-6.108;2023-01-29T06:38:24;0.85;;;0.40;;
76955;SDS011;65894;53.206;-6.108;2023-01-29T06:40:50;1.33;;;0.40;;
76955;SDS011;65894;53.206;-6.108;2023-01-29T06:43:17;1.98;;;0.60;;
76955;SDS011;65894;53.206;-6.108;2023-01-29T06:45:49;1.30;;;0.65;;
76955;SDS011;65894;53.206;-6.108;2023-01-29T06:48:17;0.82;;;0.43;;
76955;SDS011;65894;53.206;-6.108;2023-01-29T06:50:44;1.42;;;0.55;;
76955;SDS011;65894;53.206;-6.108;2023-01-29T06:53:09;0.90;;;0.40;;
76955;SDS011;65894;53.206;-6.108;2023-01-29T06:55:35;0.70;;;0.43;;
76955;SDS011;65894;53.206;-6.108;2023-01-29T06:58:07;1.25;;;0.50;;
76955;SDS011;65894;53.206;-6.108;2023-01-29T07:00:36;0.82;;;0.38;;
76955;SDS011;65894;53.206;-6.108;2023-01-29T07:03:03;1.48;;;0.40;;
76955;SDS011;65894;53.206;-6.108;2023-01-29T07:05:29;0.70;;;0.50;;
76955;SDS011;65894;53.206;-6.108;2023-01-29T07:07:55;1.75;;;0.50;;
76955;SDS011;65894;53.206;-6.108;2023-01-29T07:10:21;0.90;;;0.50;;
76955;SDS011;65894;53.206;-6.108;2023-01-29T07:12:47;0.50;;;0.38;;
76955;SDS011;65894;53.206;-6.108;2023-01-29T07:15:12;0.98;;;0.50;;
76955;SDS011;65894;53.206;-6.108;2023-01-29T07:17:38;1.00;;;0.40;;
76955;SDS011;65894;53.206;-6.108;2023-01-29T07:20:04;0.85;;;0.35;;
76955;SDS011;65894;53.206;-6.108;2023-01-29T07:22:30;0.73;;;0.47;;
76955;SDS011;65894;53.206;-6.108;2023-01-29T07:24:56;0.73;;;0.43;;
76955;SDS011;65894;53.206;-6.108;2023-01-29T07:27:22;1.20;;;0.60;;
76955;SDS011;65894;53.206;-6.108;2023-01-29T07:29:47;1.05;;;0.30;;
76955;SDS011;65894;53.206;-6.108;2023-01-29T07:32:13;1.00;;;0.40;;
76955;SDS011;65894;53.206;-6.108;2023-01-29T07:34:38;1.35;;;0.40;;
76955;SDS011;65894;53.206;-6.108;2023-01-29T07:37:04;0.30;;;0.30;;
76955;SDS011;65894;53.206;-6.108;2023-01-29T07:39:30;1.15;;;0.45;;
76955;SDS011;65894;53.206;-6.108;2023-01-29T07:41:56;0.60;;;0.38;;
76955;SDS011;65894;53.206;-6.108;2023-01-29T07:44:23;1.17;;;0.50;;
76955;SDS011;65894;53.206;-6.108;2023-01-29T07:46:48;0.45;;;0.30;;
76955;SDS011;65894;53.206;-6.108;2023-01-29T07:49:14;0.40;;;0.30;;
76955;SDS011;65894;53.206;-6.108;2023-01-29T07:51:40;0.88;;;0.32;;
76955;SDS011;65894;53.206;-6.108;2023-01-29T07:54:05;0.45;;;0.30;;
76955;SDS011;65894;53.206;-6.108;2023-01-29T07:56:31;0.73;;;0.38;;
76955;SDS011;65894;53.206;-6.108;2023-01-29T07:58:57;0.65;;;0.30;;
76955;SDS011;65894;53.206;-6.108;2023-01-29T08:01:22;0.50;;;0.20;;
76955;SDS011;65894;53.206;-6.108;2023-01-29T08:03:48;0.20;;;0.20;;
76955;SDS011;65894;53.206;-6.108;2023-01-29T08:06:13;0.50;;;0.22;;
76955;SDS011;65894;53.206;-6.108;2023-01-29T08:08:39;0.30;;;0.30;;
76955;SDS011;65894;53.206;-6.108;2023-01-29T08:11:04;0.17;;;0.13;;
76955;SDS011;65894;53.206;-6.108;2023-01-29T08:13:30;0.73;;;0.30;;
76955;SDS011;65894;53.206;-6.108;2023-01-29T08:16:02;0.88;;;0.38;;
76955;SDS011;65894;53.206;-6.108;2023-01-29T08:18:28;0.20;;;0.20;;
76955;SDS011;65894;53.206;-6.108;2023-01-29T08:21:01;0.65;;;0.30;;
76955;SDS011;65894;53.206;-6.108;2023-01-29T08:23:28;0.65;;;0.32;;
76955;SDS011;65894;53.206;-6.108;2023-01-29T08:25:54;0.60;;;0.30;;
76955;SDS011;65894;53.206;-6.108;2023-01-29T08:28:19;0.90;;;0.30;;
76955;SDS011;65894;53.206;-6.108;2023-01-29T08:30:45;0.75;;;0.32;;
76955;SDS011;65894;53.206;-6.108;2023-01-29T08:33:11;0.55;;;0.30;;
76955;SDS011;65894;53.206;-6.108;2023-01-29T08:35:36;0.90;;;0.30;;
76955;SDS011;65894;53.206;-6.108;2023-01-29T08:38:02;0.75;;;0.30;;
76955;SDS011;65894;53.206;-6.108;2023-01-29T08:40:30;0.47;;;0.22;;
76955;SDS011;65894;53.206;-6.108;2023-01-29T08:42:58;1.02;;;0.20;;
76955;SDS011;65894;53.206;-6.108;2023-01-29T08:45:25;0.32;;;0.28;;
76955;SDS011;65894;53.206;-6.108;2023-01-29T08:47:50;0.20;;;0.20;;
76955;SDS011;65894;53.206;-6.108;2023-01-29T08:50:16;0.25;;;0.20;;
76955;SDS011;65894;53.206;-6.108;2023-01-29T08:52:42;0.50;;;0.20;;
76955;SDS011;65894;53.206;-6.108;2023-01-29T08:55:08;0.77;;;0.22;;
76955;SDS011;65894;53.206;-6.108;2023-01-29T08:57:35;0.68;;;0.30;;
76955;SDS011;65894;53.206;-6.108;2023-01-29T09:00:01;1.85;;;0.52;;
76955;SDS011;65894;53.206;-6.108;2023-01-29T09:02:27;0.65;;;0.20;;
76955;SDS011;65894;53.206;-6.108;2023-01-29T09:04:53;0.80;;;0.20;;
76955;SDS011;65894;53.206;-6.108;2023-01-29T09:07:18;0.50;;;0.20;;
76955;SDS011;65894;53.206;-6.108;2023-01-29T09:09:45;0.75;;;0.30;;
76955;SDS011;65894;53.206;-6.108;2023-01-29T09:12:11;0.30;;;0.20;;
76955;SDS011;65894;53.206;-6.108;2023-01-29T09:14:37;0.35;;;0.20;;
76955;SDS011;65894;53.206;-6.108;2023-01-29T09:17:05;1.02;;;0.20;;
76955;SDS011;65894;53.206;-6.108;2023-01-29T09:19:30;0.25;;;0.17;;
76955;SDS011;65894;53.206;-6.108;2023-01-29T09:21:56;0.35;;;0.20;;
76955;SDS011;65894;53.206;-6.108;2023-01-29T09:24:21;0.32;;;0.20;;
76955;SDS011;65894;53.206;-6.108;2023-01-29T09:26:47;0.82;;;0.30;;
76955;SDS011;65894;53.206;-6.108;2023-01-29T09:29:12;0.20;;;0.20;;
76955;SDS011;65894;53.206;-6.108;2023-01-29T09:31:37;0.13;;;0.13;;
76955;SDS011;65894;53.206;-6.108;2023-01-29T09:34:03;0.82;;;0.20;;
76955;SDS011;65894;53.206;-6.108;2023-01-29T09:36:28;0.70;;;0.30;;
76955;SDS011;65894;53.206;-6.108;2023-01-29T09:38:54;0.28;;;0.22;;
76955;SDS011;65894;53.206;-6.108;2023-01-29T09:43:55;1.92;;;0.47;;
76955;SDS011;65894;53.206;-6.108;2023-01-29T09:49:07;0.63;;;0.30;;
76955;SDS011;65894;53.206;-6.108;2023-01-29T09:51:55;0.35;;;0.30;;
76955;SDS011;65894;53.206;-6.108;2023-01-29T09:57:14;0.90;;;0.40;;
76955;SDS011;65894;53.206;-6.108;2023-01-29T09:59:49;0.40;;;0.30;;
76955;SDS011;65894;53.206;-6.108;2023-01-29T10:02:21;0.70;;;0.30;;
76955;SDS011;65894;53.206;-6.108;2023-01-29T10:07:54;0.52;;;0.30;;
76955;SDS011;65894;53.206;-6.108;2023-01-29T10:13:47;0.25;;;0.25;;
76955;SDS011;65894;53.206;-6.108;2023-01-29T10:24:25;0.40;;;0.30;;
76955;SDS011;65894;53.206;-6.108;2023-01-29T10:26:58;0.22;;;0.22;;
76955;SDS011;65894;53.206;-6.108;2023-01-29T10:29:25;0.50;;;0.30;;
76955;SDS011;65894;53.206;-6.108;2023-01-29T10:31:54;0.22;;;0.22;;
76955;SDS011;65894;53.206;-6.108;2023-01-29T10:34:32;0.20;;;0.20;;
76955;SDS011;65894;53.206;-6.108;2023-01-29T10:37:07;0.50;;;0.28;;
76955;SDS011;65894;53.206;-6.108;2023-01-29T10:39:40;1.75;;;0.70;;
76955;SDS011;65894;53.206;-6.108;2023-01-29T10:42:14;2.45;;;0.40;;
76955;SDS011;65894;53.206;-6.108;2023-01-29T10:45:03;2.28;;;0.30;;
76955;SDS011;65894;53.206;-6.108;2023-01-29T10:55:58;3.55;;;0.50;;
76955;SDS011;65894;53.206;-6.108;2023-01-29T11:01:15;6.78;;;0.52;;
76955;SDS011;65894;53.206;-6.108;2023-01-29T11:03:40;4.25;;;0.90;;
76955;SDS011;65894;53.206;-6.108;2023-01-29T11:08:33;4.65;;;0.65;;
76955;SDS011;65894;53.206;-6.108;2023-01-29T11:11:07;2.72;;;0.40;;
76955;SDS011;65894;53.206;-6.108;2023-01-29T11:13:39;1.42;;;0.50;;
76955;SDS011;65894;53.206;-6.108;2023-01-29T11:16:19;2.25;;;0.38;;
76955;SDS011;65894;53.206;-6.108;2023-01-29T11:18:49;3.97;;;0.60;;
76955;SDS011;65894;53.206;-6.108;2023-01-29T11:21:15;3.97;;;0.70;;
76955;SDS011;65894;53.206;-6.108;2023-01-29T11:23:40;4.05;;;0.57;;
76955;SDS011;65894;53.206;-6.108;2023-01-29T11:26:05;6.13;;;0.70;;
76955;SDS011;65894;53.206;-6.108;2023-01-29T11:28:36;3.35;;;0.80;;
76955;SDS011;65894;53.206;-6.108;2023-01-29T11:31:14;3.63;;;0.43;;
76955;SDS011;65894;53.206;-6.108;2023-01-29T11:34:00;3.40;;;0.52;;
76955;SDS011;65894;53.206;-6.108;2023-01-29T11:36:33;6.90;;;0.90;;
76955;SDS011;65894;53.206;-6.108;2023-01-29T11:39:18;1.83;;;0.28;;
76955;SDS011;65894;53.206;-6.108;2023-01-29T11:41:51;4.35;;;0.52;;
76955;SDS011;65894;53.206;-6.108;2023-01-29T11:44:34;3.45;;;0.60;;
76955;SDS011;65894;53.206;-6.108;2023-01-29T11:49:43;3.58;;;0.47;;
76955;SDS011;65894;53.206;-6.108;2023-01-29T11:52:10;4.38;;;0.52;;
76955;SDS011;65894;53.206;-6.108;2023-01-29T11:54:43;3.40;;;0.45;;
76955;SDS011;65894;53.206;-6.108;2023-01-29T11:57:37;7.43;;;0.95;;
76955;SDS011;65894;53.206;-6.108;2023-01-29T12:02:44;2.13;;;0.45;;
76955;SDS011;65894;53.206;-6.108;2023-01-29T12:05:14;3.78;;;0.43;;
76955;SDS011;65894;53.206;-6.108;2023-01-29T12:07:41;4.55;;;0.95;;
76955;SDS011;65894;53.206;-6.108;2023-01-29T12:15:35;2.65;;;0.50;;
76955;SDS011;65894;53.206;-6.108;2023-01-29T12:31:07;4.75;;;0.63;;
76955;SDS011;65894;53.206;-6.108;2023-01-29T12:33:38;9.57;;;0.80;;
76955;SDS011;65894;53.206;-6.108;2023-01-29T12:36:16;21.77;;;2.03;;
76955;SDS011;65894;53.206;-6.108;2023-01-29T12:38:49;16.83;;;1.40;;
76955;SDS011;65894;53.206;-6.108;2023-01-29T12:44:09;7.18;;;1.02;;
76955;SDS011;65894;53.206;-6.108;2023-01-29T12:46:41;9.00;;;1.10;;
76955;SDS011;65894;53.206;-6.108;2023-01-29T12:49:12;3.90;;;0.63;;
76955;SDS011;65894;53.206;-6.108;2023-01-29T12:51:44;3.40;;;0.50;;
76955;SDS011;65894;53.206;-6.108;2023-01-29T12:54:17;6.55;;;1.02;;
76955;SDS011;65894;53.206;-6.108;2023-01-29T12:56:48;6.47;;;0.70;;
76955;SDS011;65894;53.206;-6.108;2023-01-29T12:59:51;5.93;;;0.65;;
76955;SDS011;65894;53.206;-6.108;2023-01-29T13:04:57;9.15;;;0.95;;
76955;SDS011;65894;53.206;-6.108;2023-01-29T13:07:31;9.48;;;1.05;;
76955;SDS011;65894;53.206;-6.108;2023-01-29T13:10:06;5.30;;;0.80;;
76955;SDS011;65894;53.206;-6.108;2023-01-29T13:12:38;8.57;;;0.80;;
76955;SDS011;65894;53.206;-6.108;2023-01-29T13:15:27;7.07;;;0.82;;
76955;SDS011;65894;53.206;-6.108;2023-01-29T13:20:47;7.93;;;1.10;;
76955;SDS011;65894;53.206;-6.108;2023-01-29T13:23:16;10.75;;;1.50;;
76955;SDS011;65894;53.206;-6.108;2023-01-29T13:25:48;7.85;;;1.25;;
76955;SDS011;65894;53.206;-6.108;2023-01-29T13:28:16;8.00;;;0.90;;
76955;SDS011;65894;53.206;-6.108;2023-01-29T13:30:44;7.57;;;1.00;;
76955;SDS011;65894;53.206;-6.108;2023-01-29T13:33:18;4.25;;;1.10;;
76955;SDS011;65894;53.206;-6.108;2023-01-29T13:35:47;13.40;;;1.83;;
76955;SDS011;65894;53.206;-6.108;2023-01-29T13:38:23;4.95;;;1.08;;
76955;SDS011;65894;53.206;-6.108;2023-01-29T13:40:51;4.32;;;0.90;;
76955;SDS011;65894;53.206;-6.108;2023-01-29T13:43:20;4.75;;;0.80;;
76955;SDS011;65894;53.206;-6.108;2023-01-29T13:45:47;4.47;;;0.90;;
76955;SDS011;65894;53.206;-6.108;2023-01-29T13:50:42;4.70;;;0.90;;
76955;SDS011;65894;53.206;-6.108;2023-01-29T13:53:17;2.97;;;0.80;;
76955;SDS011;65894;53.206;-6.108;2023-01-29T13:55:47;3.25;;;0.80;;
76955;SDS011;65894;53.206;-6.108;2023-01-29T13:58:18;2.22;;;0.70;;
76955;SDS011;65894;53.206;-6.108;2023-01-29T14:01:09;2.72;;;0.85;;
76955;SDS011;65894;53.206;-6.108;2023-01-29T14:03:45;1.58;;;0.63;;
76955;SDS011;65894;53.206;-6.108;2023-01-29T14:06:35;3.30;;;0.85;;
76955;SDS011;65894;53.206;-6.108;2023-01-29T14:09:18;3.53;;;0.70;;
76955;SDS011;65894;53.206;-6.108;2023-01-29T14:12:02;3.35;;;0.82;;
76955;SDS011;65894;53.206;-6.108;2023-01-29T14:17:16;3.53;;;0.60;;
76955;SDS011;65894;53.206;-6.108;2023-01-29T14:19:51;3.75;;;0.75;;
76955;SDS011;65894;53.206;-6.108;2023-01-29T14:22:19;3.72;;;0.95;;
76955;SDS011;65894;53.206;-6.108;2023-01-29T14:24:48;2.83;;;0.70;;
76955;SDS011;65894;53.206;-6.108;2023-01-29T14:27:18;2.85;;;0.80;;
76955;SDS011;65894;53.206;-6.108;2023-01-29T14:29:46;4.25;;;0.88;;
76955;SDS011;65894;53.206;-6.108;2023-01-29T14:32:17;6.00;;;0.80;;
76955;SDS011;65894;53.206;-6.108;2023-01-29T14:34:48;3.88;;;0.80;;
76955;SDS011;65894;53.206;-6.108;2023-01-29T14:39:43;5.32;;;1.00;;
76955;SDS011;65894;53.206;-6.108;2023-01-29T14:49:52;4.65;;;0.95;;
76955;SDS011;65894;53.206;-6.108;2023-01-29T14:52:20;4.75;;;0.95;;
76955;SDS011;65894;53.206;-6.108;2023-01-29T14:54:52;6.25;;;1.00;;
76955;SDS011;65894;53.206;-6.108;2023-01-29T14:57:23;6.63;;;0.93;;
76955;SDS011;65894;53.206;-6.108;2023-01-29T14:59:54;4.88;;;1.05;;
76955;SDS011;65894;53.206;-6.108;2023-01-29T15:02:24;8.23;;;2.00;;
76955;SDS011;65894;53.206;-6.108;2023-01-29T15:05:01;3.58;;;0.85;;
76955;SDS011;65894;53.206;-6.108;2023-01-29T15:07:34;3.30;;;0.80;;
76955;SDS011;65894;53.206;-6.108;2023-01-29T15:10:10;4.80;;;0.98;;
76955;SDS011;65894;53.206;-6.108;2023-01-29T15:17:48;7.70;;;1.02;;
76955;SDS011;65894;53.206;-6.108;2023-01-29T15:20:38;11.60;;;1.92;;
76955;SDS011;65894;53.206;-6.108;2023-01-29T15:25:50;2.25;;;0.80;;
76955;SDS011;65894;53.206;-6.108;2023-01-29T15:28:18;5.03;;;1.10;;
76955;SDS011;65894;53.206;-6.108;2023-01-29T15:30:44;5.55;;;1.15;;
76955;SDS011;65894;53.206;-6.108;2023-01-29T15:33:10;5.55;;;0.95;;
76955;SDS011;65894;53.206;-6.108;2023-01-29T15:35:38;4.65;;;0.93;;
76955;SDS011;65894;53.206;-6.108;2023-01-29T15:40:31;4.38;;;0.90;;
76955;SDS011;65894;53.206;-6.108;2023-01-29T15:42:57;6.35;;;0.98;;
76955;SDS011;65894;53.206;-6.108;2023-01-29T15:47:54;3.88;;;1.15;;
76955;SDS011;65894;53.206;-6.108;2023-01-29T15:50:24;4.57;;;1.00;;
76955;SDS011;65894;53.206;-6.108;2023-01-29T15:52:50;5.55;;;1.15;;
76955;SDS011;65894;53.206;-6.108;2023-01-29T15:55:18;5.20;;;1.00;;
76955;SDS011;65894;53.206;-6.108;2023-01-29T15:57:47;4.35;;;0.80;;
76955;SDS011;65894;53.206;-6.108;2023-01-29T16:00:31;5.25;;;1.00;;
76955;SDS011;65894;53.206;-6.108;2023-01-29T16:02:57;5.03;;;1.10;;
76955;SDS011;65894;53.206;-6.108;2023-01-29T16:05:26;9.27;;;1.20;;
76955;SDS011;65894;53.206;-6.108;2023-01-29T16:07:54;4.78;;;0.90;;
76955;SDS011;65894;53.206;-6.108;2023-01-29T16:10:22;6.72;;;1.10;;
76955;SDS011;65894;53.206;-6.108;2023-01-29T16:12:50;5.03;;;1.10;;
76955;SDS011;65894;53.206;-6.108;2023-01-29T16:15:27;6.03;;;1.00;;
76955;SDS011;65894;53.206;-6.108;2023-01-29T16:18:02;5.50;;;1.90;;
76955;SDS011;65894;53.206;-6.108;2023-01-29T16:20:44;6.97;;;1.10;;
76955;SDS011;65894;53.206;-6.108;2023-01-29T16:23:15;9.73;;;1.20;;
76955;SDS011;65894;53.206;-6.108;2023-01-29T16:25:47;5.18;;;1.05;;
76955;SDS011;65894;53.206;-6.108;2023-01-29T16:28:13;8.25;;;1.17;;
76955;SDS011;65894;53.206;-6.108;2023-01-29T16:30:40;6.30;;;1.13;;
76955;SDS011;65894;53.206;-6.108;2023-01-29T16:33:06;4.65;;;0.95;;
76955;SDS011;65894;53.206;-6.108;2023-01-29T16:35:37;3.80;;;0.90;;
76955;SDS011;65894;53.206;-6.108;2023-01-29T16:38:04;6.95;;;1.10;;
76955;SDS011;65894;53.206;-6.108;2023-01-29T16:40:37;4.60;;;0.93;;
76955;SDS011;65894;53.206;-6.108;2023-01-29T16:43:32;5.70;;;1.00;;
76955;SDS011;65894;53.206;-6.108;2023-01-29T16:46:37;3.85;;;1.00;;
76955;SDS011;65894;53.206;-6.108;2023-01-29T16:48:48;5.95;;;0.88;;
76955;SDS011;65894;53.206;-6.108;2023-01-29T16:54:02;6.38;;;0.90;;
76955;SDS011;65894;53.206;-6.108;2023-01-29T16:56:31;4.55;;;0.90;;
76955;SDS011;65894;53.206;-6.108;2023-01-29T16:58:58;5.15;;;1.10;;
76955;SDS011;65894;53.206;-6.108;2023-01-29T17:01:26;5.25;;;1.30;;
76955;SDS011;65894;53.206;-6.108;2023-01-29T17:06:37;5.43;;;1.00;;
76955;SDS011;65894;53.206;-6.108;2023-01-29T17:09:16;4.05;;;1.00;;
76955;SDS011;65894;53.206;-6.108;2023-01-29T17:11:58;5.80;;;1.00;;
76955;SDS011;65894;53.206;-6.108;2023-01-29T17:14:26;3.70;;;0.88;;
76955;SDS011;65894;53.206;-6.108;2023-01-29T17:17:06;4.72;;;0.90;;
76955;SDS011;65894;53.206;-6.108;2023-01-29T17:19:39;3.10;;;0.80;;
76955;SDS011;65894;53.206;-6.108;2023-01-29T17:22:05;4.93;;;0.93;;
76955;SDS011;65894;53.206;-6.108;2023-01-29T17:24:33;6.72;;;1.10;;
76955;SDS011;65894;53.206;-6.108;2023-01-29T17:27:01;4.78;;;1.10;;
76955;SDS011;65894;53.206;-6.108;2023-01-29T17:29:30;6.20;;;1.00;;
76955;SDS011;65894;53.206;-6.108;2023-01-29T17:31:56;3.42;;;0.73;;